Time;durP1;ratioP1;P1;durP2;ratioP2;P2;SDS_P1;SDS_P2;PMS_P1;PMS_P2;Temp;Humidity;BMP_temperature;BMP_pressure;BME280_temperature;BME280_humidity;BME280_pressure;Samples;Min_cycle;Max_cycle;Signal;HPM_P1;HPM_P2
2023/05/02 00:00:25;;;;;;;11.77;6.38;;;;;;;9.32;100.00;96316.94;5092151;27;20051;-76
2023/05/02 00:02:52;;;;;;;12.30;7.10;;;;;;;9.28;100.00;96316.72;5093677;28;20040;-75
2023/05/02 00:05:19;;;;;;;10.95;6.95;;;;;;;9.23;100.00;96313.34;5092952;28;20495;-75
2023/05/02 00:07:47;;;;;;;12.45;7.30;;;;;;;9.22;100.00;96315.25;5093150;28;20072;-75
2023/05/02 00:10:13;;;;;;;11.18;7.40;;;;;;;9.32;100.00;96311.50;5092038;28;20044;-75
2023/05/02 00:12:40;;;;;;;10.10;6.75;;;;;;;9.25;100.00;96311.13;5092417;28;20044;-74
2023/05/02 00:15:07;;;;;;;11.63;7.38;;;;;;;9.23;100.00;96322.28;5093137;28;20055;-75
2023/05/02 00:17:34;;;;;;;10.63;7.32;;;;;;;9.32;100.00;96316.94;5091701;28;20054;-74
2023/05/02 00:20:03;;;;;;;11.60;7.55;;;;;;;9.33;100.00;96311.16;5092923;28;20067;-74
2023/05/02 00:22:29;;;;;;;11.75;7.05;;;;;;;9.26;100.00;96305.38;5092476;28;20047;-74
2023/05/02 00:24:57;;;;;;;11.00;7.38;;;;;;;9.35;100.00;96308.16;5093559;27;20051;-74
2023/05/02 00:27:24;;;;;;;10.55;6.88;;;;;;;9.24;100.00;96314.94;5095166;28;20502;-74
2023/05/02 00:29:51;;;;;;;10.45;6.80;;;;;;;9.19;100.00;96306.91;5095712;28;20063;-74
2023/05/02 00:32:18;;;;;;;12.25;7.30;;;;;;;9.17;100.00;96307.25;5094669;28;20491;-75
2023/05/02 00:34:44;;;;;;;9.65;6.38;;;;;;;9.29;100.00;96306.66;5094903;28;20059;-75
2023/05/02 00:37:11;;;;;;;10.18;6.90;;;;;;;9.17;100.00;96312.66;5092246;27;20040;-75
2023/05/02 00:39:38;;;;;;;11.93;7.00;;;;;;;9.12;100.00;96305.44;5094518;28;20101;-76
2023/05/02 00:42:06;;;;;;;10.68;7.20;;;;;;;9.23;100.00;96310.63;5094419;28;20522;-74
2023/05/02 00:44:33;;;;;;;9.70;6.55;;;;;;;9.16;100.00;96305.63;5096064;28;20043;-73
2023/05/02 00:47:01;;;;;;;10.75;6.95;;;;;;;9.15;100.00;96306.75;5095675;28;20105;-74
2023/05/02 00:49:28;;;;;;;9.15;6.72;;;;;;;9.16;100.00;96300.22;5094169;27;20044;-74
2023/05/02 00:51:54;;;;;;;11.38;6.97;;;;;;;9.14;100.00;96311.41;5094464;28;20040;-75
2023/05/02 00:54:21;;;;;;;10.15;6.95;;;;;;;9.15;100.00;96313.00;5094166;28;20059;-75
2023/05/02 00:56:47;;;;;;;11.85;7.05;;;;;;;9.07;100.00;96312.91;5092259;27;20522;-76
2023/05/02 00:59:16;;;;;;;10.60;6.93;;;;;;;9.02;100.00;96311.13;5094208;28;20055;-75
2023/05/02 01:01:56;;;;;;;11.55;7.03;;;;;;;9.01;100.00;96301.38;5093976;28;20051;-75
2023/05/02 01:04:37;;;;;;;11.02;7.15;;;;;;;8.99;100.00;96310.97;5094452;28;20040;-75
2023/05/02 01:07:18;;;;;;;10.43;7.05;;;;;;;8.91;100.00;96317.13;5094865;28;20043;-74
2023/05/02 01:09:57;;;;;;;12.32;7.47;;;;;;;8.97;100.00;96308.53;5093320;27;20052;-75
2023/05/02 01:12:28;;;;;;;10.32;6.82;;;;;;;8.95;100.00;96313.47;5092277;28;20040;-75
2023/05/02 01:14:58;;;;;;;11.57;7.00;;;;;;;8.97;100.00;96313.97;5093726;28;20115;-73
2023/05/02 01:17:28;;;;;;;12.77;7.13;;;;;;;8.89;100.00;96314.72;5091607;28;20048;-73
2023/05/02 01:19:59;;;;;;;10.60;6.47;;;;;;;9.01;100.00;96319.59;5093226;28;20150;-74
2023/05/02 01:22:28;;;;;;;10.15;7.10;;;;;;;9.06;100.00;96322.19;5092350;28;20483;-73
2023/05/02 01:25:02;;;;;;;12.73;7.90;;;;;;;8.97;100.00;96319.41;5088788;27;20044;-74
2023/05/02 01:27:40;;;;;;;12.52;7.57;;;;;;;8.91;100.00;96325.25;5091830;27;20051;-74
2023/05/02 01:30:09;;;;;;;14.13;6.75;;;;;;;8.96;100.00;96334.09;5091870;28;20044;-74
2023/05/02 01:32:39;;;;;;;11.75;8.20;;;;;;;9.06;100.00;96325.69;5091875;28;20064;-74
2023/05/02 01:35:08;;;;;;;10.73;7.55;;;;;;;8.96;100.00;96328.66;5091691;28;20052;-75
2023/05/02 01:37:37;;;;;;;11.10;6.75;;;;;;;8.96;100.00;96330.56;5090985;27;20040;-73
2023/05/02 01:40:07;;;;;;;11.57;7.13;;;;;;;8.92;100.00;96326.88;5091689;28;20059;-73
2023/05/02 01:42:36;;;;;;;10.07;7.35;;;;;;;8.84;100.00;96325.69;5092087;28;20063;-73
2023/05/02 01:45:05;;;;;;;9.27;6.45;;;;;;;8.89;100.00;96333.72;5091866;28;20044;-74
2023/05/02 01:47:35;;;;;;;10.77;7.70;;;;;;;8.97;100.00;96330.25;5090808;27;20403;-74
2023/05/02 01:50:03;;;;;;;9.73;6.22;;;;;;;9.01;100.00;96335.88;5090288;28;20052;-74
2023/05/02 01:52:30;;;;;;;11.00;7.20;;;;;;;8.85;100.00;96336.25;5091626;28;20044;-75
2023/05/02 01:54:59;;;;;;;10.13;6.40;;;;;;;8.99;100.00;96333.50;5091616;28;20051;-75
2023/05/02 01:57:25;;;;;;;12.52;7.00;;;;;;;8.82;100.00;96330.63;5091260;28;20044;-73
2023/05/02 01:59:56;;;;;;;11.75;6.95;;;;;;;8.94;100.00;96339.03;5090681;28;20048;-74
2023/05/02 02:02:26;;;;;;;11.80;6.95;;;;;;;8.93;100.00;96345.59;5091016;27;20050;-73
2023/05/02 02:04:56;;;;;;;12.68;7.47;;;;;;;8.98;100.00;96345.47;5091684;28;20037;-75
2023/05/02 02:07:23;;;;;;;9.60;6.10;;;;;;;9.07;100.00;96346.31;5092362;28;20067;-73
2023/05/02 02:09:50;;;;;;;10.23;6.65;;;;;;;9.08;100.00;96339.78;5092199;28;20040;-75
2023/05/02 02:12:24;;;;;;;10.10;7.20;;;;;;;9.01;100.00;96347.56;5089836;27;20070;-73
2023/05/02 02:14:56;;;;;;;11.60;6.97;;;;;;;8.73;100.00;96346.06;5083691;28;20062;-73
2023/05/02 02:17:27;;;;;;;9.38;6.20;;;;;;;8.86;100.00;96353.34;5090840;27;20063;-73
2023/05/02 02:20:01;;;;;;;9.38;6.28;;;;;;;8.99;100.00;96349.78;5092723;28;20047;-74
2023/05/02 02:22:28;;;;;;;11.98;7.45;;;;;;;8.82;100.00;96355.06;5091218;28;20040;-74
2023/05/02 02:24:57;;;;;;;9.02;6.22;;;;;;;8.88;100.00;96353.84;5089048;27;20071;-73
2023/05/02 02:27:23;;;;;;;9.45;6.00;;;;;;;8.98;100.00;96353.63;5090463;27;20050;-73
2023/05/02 02:29:50;;;;;;;9.25;6.78;;;;;;;9.06;100.00;96355.59;5090026;28;20047;-73
2023/05/02 02:32:16;;;;;;;9.45;5.93;;;;;;;9.11;100.00;96360.91;5090201;28;20525;-76
2023/05/02 02:34:43;;;;;;;11.60;6.25;;;;;;;9.08;100.00;96358.81;5091688;28;20051;-75
2023/05/02 02:37:17;;;;;;;9.25;6.45;;;;;;;9.15;100.00;96361.09;5088789;28;20048;-73
2023/05/02 02:39:55;;;;;;;10.18;6.45;;;;;;;9.00;100.00;96373.13;5090833;28;20043;-75
2023/05/02 02:42:34;;;;;;;10.27;6.53;;;;;;;9.12;100.00;96378.78;5090013;28;22554;-73
2023/05/02 02:45:09;;;;;;;9.68;6.55;;;;;;;9.17;100.00;96369.72;5090887;28;20530;-76
2023/05/02 02:47:43;;;;;;;10.10;6.72;;;;;;;9.23;100.00;96375.84;5086997;27;20039;-75
2023/05/02 02:50:16;;;;;;;8.40;6.10;;;;;;;9.22;100.00;96372.31;5090163;28;20044;-76
2023/05/02 02:52:53;;;;;;;7.30;5.47;;;;;;;9.27;100.00;96384.97;5090475;28;20043;-75
2023/05/02 02:55:31;;;;;;;8.60;5.82;;;;;;;9.26;100.00;96380.66;5090207;28;20044;-75
2023/05/02 02:58:03;;;;;;;10.00;6.65;;;;;;;9.20;100.00;96379.19;5087644;28;20480;-76
2023/05/02 03:00:33;;;;;;;8.88;6.30;;;;;;;9.21;100.00;96378.06;5089716;28;20553;-75
2023/05/02 03:03:00;;;;;;;10.20;6.30;;;;;;;9.22;100.00;96382.38;5089535;28;20051;-75
2023/05/02 03:05:28;;;;;;;9.85;6.78;;;;;;;9.24;100.00;96383.69;5088157;28;20039;-75
2023/05/02 03:07:58;;;;;;;9.18;5.63;;;;;;;9.22;100.00;96390.53;5086498;27;20048;-76
2023/05/02 03:10:25;;;;;;;8.10;5.68;;;;;;;9.23;100.00;96386.69;5090042;28;20040;-75
2023/05/02 03:12:54;;;;;;;9.93;6.10;;;;;;;9.22;100.00;96395.97;5079389;28;20047;-75
2023/05/02 03:15:41;;;;;;;9.88;6.43;;;;;;;9.22;100.00;96401.41;5089782;28;20051;-75
2023/05/02 03:18:07;;;;;;;10.32;6.75;;;;;;;9.06;100.00;96404.47;5089838;28;20054;-75
2023/05/02 03:20:34;;;;;;;9.90;6.20;;;;;;;9.09;100.00;96397.66;5089888;28;20399;-75
2023/05/02 03:23:01;;;;;;;7.80;5.47;;;;;;;9.11;100.00;96398.13;5090001;28;20051;-75
2023/05/02 03:25:28;;;;;;;8.65;5.75;;;;;;;9.10;100.00;96397.31;5088577;27;20487;-75
2023/05/02 03:27:57;;;;;;;9.07;6.45;;;;;;;8.96;100.00;96398.47;5090241;28;20415;-75
2023/05/02 03:30:23;;;;;;;8.55;6.00;;;;;;;9.00;100.00;96397.56;5090309;28;20047;-75
2023/05/02 03:32:49;;;;;;;9.75;6.57;;;;;;;8.92;100.00;96395.56;5088442;27;20414;-74
2023/05/02 03:35:16;;;;;;;10.25;6.78;;;;;;;8.85;100.00;96401.41;5088933;28;20088;-74
2023/05/02 03:37:42;;;;;;;10.57;6.63;;;;;;;8.80;100.00;96400.72;5090549;28;20108;-75
2023/05/02 03:40:11;;;;;;;9.48;6.50;;;;;;;8.73;100.00;96400.34;5089868;28;20135;-79
2023/05/02 03:42:39;;;;;;;10.20;7.20;;;;;;;8.70;100.00;96401.75;5088866;28;20036;-75
2023/05/02 03:45:07;;;;;;;10.25;7.18;;;;;;;8.65;100.00;96401.84;5089565;28;20644;-76
2023/05/02 03:47:33;;;;;;;12.07;7.70;;;;;;;8.50;100.00;96408.41;5087612;28;20036;-75
2023/05/02 03:50:00;;;;;;;12.23;7.72;;;;;;;8.54;100.00;96406.69;5090091;28;20059;-75
2023/05/02 03:52:27;;;;;;;11.13;7.60;;;;;;;8.51;100.00;96409.19;5089449;28;20043;-75
2023/05/02 03:54:53;;;;;;;10.30;7.13;;;;;;;8.56;100.00;96417.25;5087015;27;20048;-76
2023/05/02 03:57:21;;;;;;;10.40;6.65;;;;;;;8.55;100.00;96416.44;5088734;27;20051;-75
2023/05/02 03:59:48;;;;;;;12.80;7.00;;;;;;;8.52;100.00;96422.50;5081706;28;20044;-75
2023/05/02 04:02:14;;;;;;;10.00;7.32;;;;;;;8.59;100.00;96422.88;5089368;28;20048;-75
2023/05/02 04:04:42;;;;;;;11.40;7.35;;;;;;;8.63;100.00;96423.88;5089931;28;20075;-76
2023/05/02 04:07:14;;;;;;;12.23;7.05;;;;;;;8.62;100.00;96433.13;5088369;28;20048;-76
2023/05/02 04:09:40;;;;;;;9.43;6.87;;;;;;;8.67;100.00;96436.88;5089784;28;20040;-76
2023/05/02 04:12:07;;;;;;;9.63;6.43;;;;;;;8.70;100.00;96439.75;5089396;28;20040;-75
2023/05/02 04:14:35;;;;;;;10.15;6.20;;;;;;;8.73;100.00;96438.34;5088428;27;20048;-75
2023/05/02 04:17:01;;;;;;;13.63;7.95;;;;;;;8.66;100.00;96443.38;5091924;28;20063;-75
2023/05/02 04:19:28;;;;;;;11.43;7.35;;;;;;;8.71;100.00;96446.78;5091800;28;20040;-75
2023/05/02 04:21:54;;;;;;;9.57;6.63;;;;;;;8.77;100.00;96450.19;5086087;28;20052;-76
2023/05/02 04:24:21;;;;;;;10.25;6.95;;;;;;;8.72;100.00;96453.00;5093130;28;20495;-76
2023/05/02 04:26:47;;;;;;;9.55;6.72;;;;;;;8.72;100.00;96458.44;5093511;28;20051;-73
2023/05/02 04:29:14;;;;;;;10.68;7.63;;;;;;;8.57;100.00;96463.09;5092653;28;20121;-75
2023/05/02 04:31:42;;;;;;;11.98;8.10;;;;;;;8.51;100.00;96463.47;5091129;27;20403;-75
2023/05/02 04:34:11;;;;;;;10.27;7.53;;;;;;;8.46;100.00;96464.41;5092669;28;20055;-74
2023/05/02 04:36:38;;;;;;;11.63;7.65;;;;;;;8.55;100.00;96465.28;5093188;28;20048;-74
2023/05/02 04:39:06;;;;;;;10.10;7.38;;;;;;;8.70;100.00;96466.09;5091600;27;20043;-74
2023/05/02 04:41:33;;;;;;;15.93;8.45;;;;;;;8.79;100.00;96462.38;5091930;27;20047;-73
2023/05/02 04:43:59;;;;;;;11.43;8.05;;;;;;;8.62;100.00;96463.00;5092313;28;20036;-73
2023/05/02 04:46:26;;;;;;;12.25;8.35;;;;;;;8.65;100.00;96474.34;5091999;28;20043;-73
2023/05/02 04:48:53;;;;;;;12.25;8.23;;;;;;;8.63;100.00;96470.03;5092433;27;20048;-74
2023/05/02 04:51:20;;;;;;;11.50;7.45;;;;;;;8.72;100.00;96470.13;5092309;28;20415;-72
2023/05/02 04:53:46;;;;;;;12.38;7.75;;;;;;;8.82;100.00;96477.25;5091699;28;20044;-74
2023/05/02 04:56:13;;;;;;;12.02;7.80;;;;;;;8.76;100.00;96481.19;5092111;28;20040;-73
2023/05/02 04:58:40;;;;;;;12.45;7.78;;;;;;;8.46;100.00;96494.25;5092373;28;20048;-73
2023/05/02 05:01:06;;;;;;;14.07;8.05;;;;;;;8.61;100.00;96491.25;5092216;28;20538;-73
2023/05/02 05:03:33;;;;;;;15.85;9.20;;;;;;;8.67;100.00;96488.44;5091469;28;20048;-73
2023/05/02 05:06:01;;;;;;;13.45;8.70;;;;;;;8.70;100.00;96490.53;5090661;28;20044;-75
2023/05/02 05:08:27;;;;;;;13.05;8.18;;;;;;;8.72;100.00;96491.03;5091735;28;20044;-74
2023/05/02 05:10:54;;;;;;;15.82;8.85;;;;;;;8.57;100.00;96498.38;5091993;28;20503;-73
2023/05/02 05:13:20;;;;;;;15.05;8.57;;;;;;;8.65;100.00;96496.06;5091438;28;20082;-73
2023/05/02 05:15:47;;;;;;;12.10;7.78;;;;;;;8.85;100.00;96506.53;5090459;27;20507;-73
2023/05/02 05:18:14;;;;;;;10.90;7.32;;;;;;;8.85;100.00;96504.59;5091312;28;20044;-74
2023/05/02 05:20:40;;;;;;;11.90;7.63;;;;;;;8.90;100.00;96509.13;5090732;27;20036;-74
2023/05/02 05:23:08;;;;;;;14.63;8.35;;;;;;;8.66;100.00;96509.31;5091277;28;20043;-74
2023/05/02 05:25:34;;;;;;;11.68;7.32;;;;;;;8.85;100.00;96509.22;5091900;28;20047;-74
2023/05/02 05:28:01;;;;;;;13.52;8.20;;;;;;;8.78;100.00;96515.06;5091551;28;20539;-74
2023/05/02 05:30:29;;;;;;;11.05;7.32;;;;;;;8.91;100.00;96510.72;5090671;28;20036;-74
2023/05/02 05:32:57;;;;;;;12.68;7.60;;;;;;;8.75;100.00;96507.53;5091619;28;20128;-74
2023/05/02 05:35:23;;;;;;;12.40;7.50;;;;;;;8.89;100.00;96521.09;5091655;28;20457;-73
2023/05/02 05:37:50;;;;;;;11.77;7.75;;;;;;;8.84;100.00;96519.28;5092053;28;20051;-73
2023/05/02 05:40:18;;;;;;;12.10;8.02;;;;;;;8.82;100.00;96513.38;5090158;27;20070;-73
2023/05/02 05:42:45;;;;;;;11.88;7.25;;;;;;;8.64;100.00;96525.13;5090898;28;20066;-73
2023/05/02 05:45:12;;;;;;;11.35;7.28;;;;;;;8.82;100.00;96523.41;5091185;28;20165;-73
2023/05/02 05:47:38;;;;;;;11.93;7.63;;;;;;;8.86;100.00;96535.28;5091586;28;20075;-73
2023/05/02 05:50:06;;;;;;;11.52;8.05;;;;;;;8.73;100.00;96542.31;5091380;28;20055;-73
2023/05/02 05:52:32;;;;;;;12.10;8.40;;;;;;;8.76;100.00;96536.28;5091415;28;20052;-76
2023/05/02 05:54:59;;;;;;;12.18;8.30;;;;;;;8.90;100.00;96541.72;5091322;27;20039;-73
2023/05/02 05:57:27;;;;;;;12.95;7.70;;;;;;;8.74;100.00;96546.66;5091483;28;20181;-73
2023/05/02 05:59:53;;;;;;;10.75;7.28;;;;;;;8.92;100.00;96538.69;5091730;28;20080;-75
2023/05/02 06:02:20;;;;;;;14.07;8.43;;;;;;;8.99;100.00;96545.34;5091185;28;20043;-74
2023/05/02 06:04:46;;;;;;;12.98;7.78;;;;;;;9.02;100.00;96544.72;5091022;28;20694;-74
2023/05/02 06:07:13;;;;;;;13.38;7.70;;;;;;;9.03;100.00;96549.06;5089412;28;20070;-73
2023/05/02 06:09:39;;;;;;;13.63;7.82;;;;;;;9.11;100.00;96559.22;5089222;28;20517;-73
2023/05/02 06:12:06;;;;;;;11.05;7.43;;;;;;;8.99;100.00;96545.34;5090069;28;20040;-73
2023/05/02 06:14:33;;;;;;;10.50;7.55;;;;;;;9.05;100.00;96555.00;5091103;28;20047;-72
2023/05/02 06:17:00;;;;;;;13.32;8.48;;;;;;;8.92;100.00;96560.41;5090874;28;20046;-72
2023/05/02 06:19:26;;;;;;;11.95;7.65;;;;;;;8.90;100.00;96563.44;5089276;28;20047;-73
2023/05/02 06:21:53;;;;;;;12.32;7.78;;;;;;;8.95;100.00;96571.50;5090528;28;20047;-72
2023/05/02 06:24:19;;;;;;;15.85;8.85;;;;;;;8.85;100.00;96567.06;5090095;28;20074;-73
2023/05/02 06:26:46;;;;;;;13.27;7.65;;;;;;;8.96;100.00;96567.66;5090886;28;20456;-72
2023/05/02 06:29:13;;;;;;;16.77;8.40;;;;;;;8.86;100.00;96573.28;5090377;28;20047;-73
2023/05/02 06:31:41;;;;;;;10.98;7.57;;;;;;;8.98;100.00;96580.94;5089283;27;20044;-72
2023/05/02 06:34:07;;;;;;;14.63;8.07;;;;;;;8.99;100.00;96577.94;5090470;28;20495;-73
2023/05/02 06:36:34;;;;;;;10.15;7.00;;;;;;;8.95;100.00;96576.91;5090828;28;20036;-73
2023/05/02 06:39:00;;;;;;;12.45;7.68;;;;;;;9.09;100.00;96590.50;5089508;28;20051;-72
2023/05/02 06:41:27;;;;;;;14.20;7.95;;;;;;;9.14;100.00;96584.97;5089977;28;20040;-74
2023/05/02 06:43:53;;;;;;;14.13;8.10;;;;;;;9.05;100.00;96589.50;5085622;28;20433;-74
2023/05/02 06:46:20;;;;;;;14.25;8.77;;;;;;;9.33;100.00;96590.28;5085751;28;20407;-74
2023/05/02 06:48:48;;;;;;;13.75;8.70;;;;;;;9.50;100.00;96593.19;5090142;28;20044;-73
2023/05/02 06:51:14;;;;;;;14.50;8.05;;;;;;;9.51;100.00;96594.78;5089026;28;20594;-74
2023/05/02 06:53:41;;;;;;;14.07;8.75;;;;;;;9.50;100.00;96595.91;5089121;28;20050;-73
2023/05/02 06:56:08;;;;;;;19.17;9.23;;;;;;;9.56;100.00;96599.31;5088300;28;20044;-73
2023/05/02 06:58:34;;;;;;;15.23;9.27;;;;;;;9.74;100.00;96603.78;5090511;28;20077;-73
2023/05/02 07:01:01;;;;;;;13.95;8.45;;;;;;;9.62;100.00;96607.06;5089379;28;20092;-73
2023/05/02 07:03:28;;;;;;;12.23;8.02;;;;;;;9.68;100.00;96605.81;5089282;28;20629;-73
2023/05/02 07:05:55;;;;;;;11.88;7.57;;;;;;;9.80;100.00;96607.19;5069897;28;20040;-73
2023/05/02 07:08:22;;;;;;;15.68;8.90;;;;;;;9.90;100.00;96613.22;5078180;28;20087;-73
2023/05/02 07:10:50;;;;;;;17.50;8.48;;;;;;;9.87;100.00;96602.97;5089410;28;20051;-73
2023/05/02 07:13:16;;;;;;;13.95;8.25;;;;;;;10.02;100.00;96604.50;5088733;28;20431;-74
2023/05/02 07:15:43;;;;;;;17.38;9.30;;;;;;;9.96;100.00;96608.47;5089882;28;20116;-73
2023/05/02 07:18:09;;;;;;;15.35;9.45;;;;;;;10.04;100.00;96604.22;5087335;28;20047;-74
2023/05/02 07:20:37;;;;;;;16.20;8.73;;;;;;;10.03;100.00;96605.34;5089916;28;20040;-73
2023/05/02 07:23:05;;;;;;;14.77;9.15;;;;;;;10.05;100.00;96609.34;5089509;28;20040;-73
2023/05/02 07:25:32;;;;;;;13.57;8.93;;;;;;;10.04;100.00;96605.00;5089745;28;20048;-73
2023/05/02 07:27:58;;;;;;;13.35;8.30;;;;;;;10.12;100.00;96608.91;5090446;28;20400;-74
2023/05/02 07:30:25;;;;;;;15.85;9.65;;;;;;;10.43;100.00;96609.78;5086804;28;20047;-74
2023/05/02 07:32:51;;;;;;;13.25;8.85;;;;;;;10.43;100.00;96606.28;5089912;28;20490;-74
2023/05/02 07:35:18;;;;;;;15.07;9.32;;;;;;;10.62;100.00;96606.06;5089662;28;20414;-74
2023/05/02 07:37:44;;;;;;;15.60;9.23;;;;;;;10.69;100.00;96612.69;5088582;28;20039;-74
2023/05/02 07:40:12;;;;;;;14.48;8.52;;;;;;;10.80;100.00;96607.75;5089429;28;20059;-74
2023/05/02 07:42:40;;;;;;;13.73;9.38;;;;;;;10.90;100.00;96607.50;5089248;28;20062;-74
2023/05/02 07:45:07;;;;;;;17.95;9.95;;;;;;;10.76;100.00;96614.19;5088040;27;20407;-74
2023/05/02 07:47:34;;;;;;;13.43;8.13;;;;;;;10.84;98.81;96613.41;5089314;28;20044;-75
2023/05/02 07:50:01;;;;;;;14.10;8.93;;;;;;;10.77;99.49;96607.59;5090823;28;20372;-74
2023/05/02 07:52:28;;;;;;;18.35;10.38;;;;;;;10.68;99.69;96616.53;5092697;28;20040;-74
2023/05/02 07:54:55;;;;;;;12.57;9.27;;;;;;;10.82;100.00;96612.91;5090869;28;20051;-73
2023/05/02 07:57:23;;;;;;;15.65;10.45;;;;;;;10.79;99.75;96621.69;5093372;28;21522;-73
2023/05/02 07:59:49;;;;;;;16.15;9.98;;;;;;;11.00;99.48;96625.50;5093167;28;20076;-74
2023/05/02 08:02:16;;;;;;;16.10;9.27;;;;;;;11.10;100.00;96625.22;5092362;27;20043;-74
2023/05/02 08:04:43;;;;;;;15.23;10.07;;;;;;;11.10;100.00;96625.22;5093769;28;20135;-74
2023/05/02 08:07:09;;;;;;;12.07;9.27;;;;;;;11.02;98.13;96625.19;5091743;28;20051;-74
2023/05/02 08:09:36;;;;;;;14.35;9.45;;;;;;;11.02;98.58;96628.72;5093638;28;20051;-74
2023/05/02 08:12:02;;;;;;;12.68;9.48;;;;;;;11.20;99.04;96635.03;5091419;28;20055;-75
2023/05/02 08:14:31;;;;;;;15.18;9.45;;;;;;;11.14;96.75;96634.38;5094064;28;20048;-74
2023/05/02 08:16:58;;;;;;;20.77;11.60;;;;;;;10.95;97.28;96631.88;5091536;28;20040;-73
2023/05/02 08:19:24;;;;;;;16.73;9.98;;;;;;;11.04;98.31;96642.81;5091006;27;20051;-74
2023/05/02 08:21:51;;;;;;;15.35;10.18;;;;;;;10.95;98.09;96645.50;5091934;28;20126;-72
2023/05/02 08:24:17;;;;;;;13.48;9.65;;;;;;;11.00;97.33;96644.56;5088819;28;20040;-72
2023/05/02 08:26:44;;;;;;;15.85;9.98;;;;;;;11.28;98.10;96638.94;5086550;28;20043;-76
2023/05/02 08:29:11;;;;;;;14.15;9.50;;;;;;;11.10;96.44;96644.28;5092956;28;20130;-76
2023/05/02 08:31:41;;;;;;;16.15;10.85;;;;;;;11.05;97.17;96641.69;5091722;27;20044;-74
2023/05/02 08:34:08;;;;;;;14.02;9.73;;;;;;;11.11;97.35;96643.16;5092863;28;20048;-74
2023/05/02 08:36:36;;;;;;;12.32;9.63;;;;;;;11.16;97.52;96643.03;5093520;28;20070;-75
2023/05/02 08:39:02;;;;;;;12.85;10.10;;;;;;;11.29;98.71;96649.50;5093859;28;20059;-75
2023/05/02 08:41:30;;;;;;;16.90;11.43;;;;;;;11.26;98.12;96646.59;5090012;28;20059;-74
2023/05/02 08:43:57;;;;;;;13.30;10.05;;;;;;;11.33;97.77;96652.38;5092909;28;20399;-74
2023/05/02 08:46:23;;;;;;;12.35;9.63;;;;;;;11.60;98.83;96649.44;5091346;28;20059;-73
2023/05/02 08:48:53;;;;;;;13.88;10.35;;;;;;;11.83;97.65;96638.44;5092861;28;20071;-74
2023/05/02 08:51:22;;;;;;;14.77;10.50;;;;;;;11.98;95.55;96648.91;5091818;28;20055;-75
2023/05/02 08:53:50;;;;;;;16.45;10.10;;;;;;;11.85;95.27;96653.41;5091981;28;20138;-73
2023/05/02 08:56:16;;;;;;;15.23;9.70;;;;;;;12.01;93.06;96656.47;5087960;28;20056;-74
2023/05/02 08:58:43;;;;;;;20.45;11.38;;;;;;;11.99;95.88;96664.16;5093068;28;20040;-74
2023/05/02 09:01:13;;;;;;;15.27;9.98;;;;;;;11.98;93.08;96659.81;5090282;28;20052;-75
2023/05/02 09:03:42;;;;;;;13.27;9.23;;;;;;;11.75;90.26;96659.91;5092621;28;20048;-74
2023/05/02 09:06:12;;;;;;;12.57;8.82;;;;;;;11.65;91.64;96664.88;5092420;28;20415;-74
2023/05/02 09:08:40;;;;;;;14.95;10.18;;;;;;;11.74;91.56;96661.03;5090870;28;20044;-74
2023/05/02 09:11:08;;;;;;;15.20;8.68;;;;;;;11.89;90.36;96659.78;5091574;27;20044;-73
2023/05/02 09:13:36;;;;;;;13.57;9.07;;;;;;;12.05;91.13;96667.53;5093705;28;20051;-73
2023/05/02 09:16:04;;;;;;;12.73;8.63;;;;;;;12.07;90.25;96666.09;5093477;28;20036;-74
2023/05/02 09:18:32;;;;;;;11.85;9.07;;;;;;;12.17;90.33;96671.25;5092594;28;20044;-74
2023/05/02 09:21:00;;;;;;;16.10;10.52;;;;;;;12.27;92.01;96673.66;5092474;28;20044;-73
2023/05/02 09:23:35;;;;;;;14.45;10.20;;;;;;;12.48;92.90;96676.56;5092731;28;20571;-73
2023/05/02 09:26:10;;;;;;;13.73;8.90;;;;;;;12.70;90.18;96672.81;5082301;28;20055;-74
2023/05/02 09:28:41;;;;;;;12.55;9.73;;;;;;;12.77;89.64;96677.78;5097796;28;20047;-75
2023/05/02 09:31:09;;;;;;;13.30;9.68;;;;;;;12.64;86.51;96668.66;5096580;28;20044;-75
2023/05/02 09:33:36;;;;;;;14.65;9.40;;;;;;;12.63;87.47;96671.69;5096168;27;20044;-74
2023/05/02 09:36:04;;;;;;;11.05;8.15;;;;;;;12.57;86.29;96676.53;5094817;28;20058;-74
2023/05/02 09:38:30;;;;;;;12.05;9.57;;;;;;;12.48;86.61;96686.69;5096123;27;20119;-74
2023/05/02 09:41:02;;;;;;;14.40;10.55;;;;;;;12.64;87.23;96690.53;5097925;27;20484;-75
2023/05/02 09:43:29;;;;;;;13.27;9.10;;;;;;;12.69;87.05;96686.81;5099390;27;20566;-75
2023/05/02 09:46:00;;;;;;;12.15;9.32;;;;;;;12.50;87.74;96689.88;5094449;28;20055;-75
2023/05/02 09:48:28;;;;;;;10.90;8.52;;;;;;;12.56;85.75;96693.25;5095874;28;20056;-74
2023/05/02 09:50:54;;;;;;;12.95;9.45;;;;;;;12.62;86.91;96691.94;5092731;28;20048;-73
2023/05/02 09:53:21;;;;;;;14.20;9.50;;;;;;;12.40;88.04;96690.19;5091283;28;20545;-74
2023/05/02 09:55:47;;;;;;;13.52;9.48;;;;;;;12.32;87.74;96689.09;5092059;28;20044;-75
2023/05/02 09:58:23;;;;;;;11.75;9.05;;;;;;;12.52;87.90;96698.53;5092623;28;20044;-74
2023/05/02 10:00:50;;;;;;;14.55;10.23;;;;;;;12.39;88.55;96692.13;5092661;28;20052;-74
2023/05/02 10:03:18;;;;;;;12.25;9.32;;;;;;;12.36;88.00;96695.50;5089744;28;20040;-73
2023/05/02 10:05:46;;;;;;;13.82;9.50;;;;;;;12.42;88.98;96696.13;5092388;28;20040;-74
2023/05/02 10:08:14;;;;;;;16.00;10.35;;;;;;;12.44;89.24;96691.16;5092053;28;20518;-74
2023/05/02 10:10:47;;;;;;;14.82;10.30;;;;;;;12.65;90.65;96686.66;5091422;28;20518;-75
2023/05/02 10:13:13;;;;;;;;;;;;;;;12.74;89.91;96679.25;5089808;28;20570;-75
2023/05/02 10:15:44;;;;;;;13.40;10.07;;;;;;;12.83;90.24;96698.34;5090876;28;19974;-75
2023/05/02 10:18:13;;;;;;;13.88;9.65;;;;;;;12.85;86.49;96684.38;5091033;28;20131;-75
2023/05/02 10:20:47;;;;;;;12.63;9.50;;;;;;;12.69;85.69;96693.09;5090558;28;20049;-74
2023/05/02 10:23:15;;;;;;;15.70;10.43;;;;;;;12.79;87.54;96692.75;5088509;28;20078;-75
2023/05/02 10:25:43;;;;;;;14.32;9.95;;;;;;;12.57;86.84;96692.91;5089878;28;20040;-75
2023/05/02 10:28:10;;;;;;;15.85;10.65;;;;;;;12.75;89.73;96694.53;5089888;28;20044;-75
2023/05/02 10:30:37;;;;;;;13.32;9.77;;;;;;;12.87;88.27;96690.31;5089999;28;20044;-75
2023/05/02 10:33:05;;;;;;;14.23;9.90;;;;;;;12.86;88.16;96696.91;5088228;28;20626;-75
2023/05/02 10:35:32;;;;;;;13.45;10.05;;;;;;;13.12;87.81;96694.94;5090809;28;20051;-75
2023/05/02 10:38:00;;;;;;;12.80;9.88;;;;;;;12.95;87.88;96690.31;5088504;28;20040;-75
2023/05/02 10:40:27;;;;;;;14.85;10.68;;;;;;;12.98;87.39;96697.06;5090355;28;20048;-74
2023/05/02 10:42:54;;;;;;;16.27;10.25;;;;;;;13.15;84.95;96693.47;5090238;28;20495;-75
2023/05/02 10:45:31;;;;;;;13.57;9.32;;;;;;;13.44;84.44;96692.75;5090047;28;20051;-75
2023/05/02 10:48:19;;;;;;;12.38;9.65;;;;;;;13.67;83.39;96683.16;5089050;28;20101;-75
2023/05/02 10:50:47;;;;;;;12.95;9.35;;;;;;;13.77;81.28;96682.78;5090600;28;20040;-74
2023/05/02 10:53:42;;;;;;;13.65;8.57;;;;;;;13.94;78.83;96681.06;5090104;28;20059;-74
2023/05/02 10:56:14;;;;;;;14.15;9.00;;;;;;;14.14;81.09;96684.97;5090218;28;20044;-75
2023/05/02 10:58:41;;;;;;;13.23;9.48;;;;;;;14.19;81.28;96688.31;5089311;28;20046;-74
2023/05/02 11:01:35;;;;;;;12.02;8.52;;;;;;;14.28;77.20;96675.38;5089559;28;20036;-75
2023/05/02 11:04:04;;;;;;;14.60;9.85;;;;;;;14.09;75.59;96683.22;5079933;28;20545;-76
2023/05/02 11:06:33;;;;;;;15.50;9.85;;;;;;;14.07;80.34;96682.78;5086926;28;20044;-75
2023/05/02 11:09:33;;;;;;;13.98;7.75;;;;;;;13.48;75.86;96685.50;5087135;28;20101;-75
2023/05/02 11:12:03;;;;;;;14.48;8.30;;;;;;;12.82;78.42;96690.50;5080944;28;20044;-74
2023/05/02 11:14:49;;;;;;;14.15;7.75;;;;;;;12.46;78.03;96694.38;5087891;28;20540;-73
2023/05/02 11:17:17;;;;;;;13.50;7.07;;;;;;;12.36;78.77;96689.22;5085970;28;20138;-74
2023/05/02 11:20:24;;;;;;;9.75;6.70;;;;;;;12.06;79.61;96689.06;5089576;28;20568;-74
2023/05/02 11:22:54;;;;;;;11.35;7.78;;;;;;;11.98;83.49;96695.31;5091096;28;20041;-74
2023/05/02 11:25:37;;;;;;;16.13;8.23;;;;;;;11.99;86.94;96700.44;5088927;28;20036;-74
2023/05/02 11:28:05;;;;;;;;;;;;;;;11.71;87.81;96691.69;5089206;28;20513;-74
2023/05/02 11:30:43;;;;;;;10.38;7.32;;;;;;;11.84;87.54;96700.06;5090497;28;19927;-74
2023/05/02 11:33:18;;;;;;;13.65;8.93;;;;;;;11.69;92.50;96688.47;5087767;28;20554;-71